Time;durP1;ratioP1;P1;durP2;ratioP2;P2;SDS_P1;SDS_P2;PMS_P1;PMS_P2;Temp;Humidity;BMP_temperature;BMP_pressure;BME280_temperature;BME280_humidity;BME280_pressure;Samples;Min_cycle;Max_cycle;Signal;HPM_P1;HPM_P2
2024/01/31 00:00:07;;;;;;;14.02;12.40;;;;;;;18.93;43.12;103012.28;5026177;28;20469;-61
2024/01/31 00:02:37;;;;;;;13.32;11.93;;;;;;;18.92;43.44;102999.78;5019206;28;20057;-62
2024/01/31 00:05:05;;;;;;;14.82;11.77;;;;;;;18.93;42.93;103004.22;5027077;28;20097;-60
2024/01/31 00:07:32;;;;;;;13.90;12.43;;;;;;;18.94;42.87;103000.59;5033662;28;20045;-55
2024/01/31 00:10:00;;;;;;;12.57;11.27;;;;;;;18.93;42.37;103005.09;5027586;28;20049;-53
2024/01/31 00:12:27;;;;;;;13.50;12.05;;;;;;;18.93;42.54;103004.22;5023418;28;20046;-55
2024/01/31 00:14:55;;;;;;;13.95;11.88;;;;;;;18.93;42.43;103010.47;5024044;28;20049;-53
2024/01/31 00:17:22;;;;;;;13.90;12.50;;;;;;;18.94;42.39;103005.97;5027182;28;20072;-52
2024/01/31 00:19:50;;;;;;;13.23;11.82;;;;;;;18.95;42.92;103005.88;5026624;28;20045;-51
2024/01/31 00:22:18;;;;;;;12.45;10.50;;;;;;;18.93;43.67;103002.41;5023129;28;20049;-51
2024/01/31 00:24:45;;;;;;;11.95;10.75;;;;;;;18.93;44.39;103006.91;5023882;28;20068;-54
2024/01/31 00:27:13;;;;;;;12.15;10.88;;;;;;;18.92;45.15;103005.16;5027331;28;20068;-58
2024/01/31 00:29:40;;;;;;;11.48;10.38;;;;;;;18.92;45.61;103005.16;5026063;28;20072;-52
2024/01/31 00:32:07;;;;;;;11.50;10.10;;;;;;;18.93;45.89;103001.53;5023662;28;20053;-53
2024/01/31 00:34:35;;;;;;;11.85;10.23;;;;;;;18.93;45.88;103007.78;5023924;28;20046;-52
2024/01/31 00:37:02;;;;;;;11.65;9.65;;;;;;;18.93;45.65;103007.78;5026507;28;20048;-53
2024/01/31 00:39:31;;;;;;;11.48;10.30;;;;;;;18.92;45.72;103003.38;5026544;28;20053;-60
2024/01/31 00:41:59;;;;;;;12.25;9.98;;;;;;;18.92;45.54;103005.16;5013040;28;20538;-60
2024/01/31 00:44:26;;;;;;;12.52;10.63;;;;;;;18.92;45.83;103006.06;5014219;28;20053;-60
2024/01/31 00:46:54;;;;;;;11.65;9.75;;;;;;;18.92;45.42;103007.84;5026251;28;20480;-60
2024/01/31 00:49:21;;;;;;;11.07;9.98;;;;;;;18.92;45.48;103007.84;5026077;28;20057;-50
2024/01/31 00:51:52;;;;;;;11.38;10.20;;;;;;;18.91;45.38;103008.78;5022341;28;20377;-53
2024/01/31 00:54:20;;;;;;;10.50;9.40;;;;;;;18.91;45.39;103014.16;5023552;28;20049;-52
2024/01/31 00:56:48;;;;;;;11.88;9.63;;;;;;;18.91;45.10;103006.09;5026750;28;20052;-51
2024/01/31 00:59:15;;;;;;;11.75;10.05;;;;;;;18.89;45.11;103016.94;5025618;28;20045;-60
2024/01/31 01:01:43;;;;;;;11.68;9.48;;;;;;;18.89;45.00;103005.31;5022311;28;20511;-60
2024/01/31 01:04:10;;;;;;;11.20;10.02;;;;;;;18.90;44.98;103002.56;5023435;28;20050;-60
2024/01/31 01:06:41;;;;;;;10.68;9.40;;;;;;;18.89;44.74;102999.97;5025639;28;20049;-60
2024/01/31 01:09:08;;;;;;;11.20;10.10;;;;;;;18.88;44.93;102998.19;5017319;28;20053;-60
2024/01/31 01:11:36;;;;;;;10.73;9.63;;;;;;;18.88;44.56;102993.72;5027740;28;20042;-60
2024/01/31 01:14:03;;;;;;;11.57;9.45;;;;;;;18.87;44.47;102988.41;5023681;28;20042;-60
2024/01/31 01:16:31;;;;;;;12.57;9.52;;;;;;;18.88;44.62;102990.16;5025507;28;20037;-60
2024/01/31 01:18:58;;;;;;;12.10;10.32;;;;;;;18.86;44.56;102992.06;5024125;28;20050;-60
2024/01/31 01:21:25;;;;;;;11.07;9.93;;;;;;;18.87;44.45;102993.78;5022290;28;20057;-60
2024/01/31 01:23:53;;;;;;;11.93;9.98;;;;;;;18.87;44.37;102985.75;5022970;28;20513;-60
2024/01/31 01:26:20;;;;;;;10.40;9.20;;;;;;;18.86;44.26;102978.63;5025280;28;20048;-60
2024/01/31 01:28:47;;;;;;;10.00;9.00;;;;;;;18.86;44.22;102981.31;5024665;28;20488;-60
2024/01/31 01:31:15;;;;;;;11.00;9.48;;;;;;;18.86;44.11;102989.38;5021638;28;20077;-60
2024/01/31 01:33:42;;;;;;;11.52;9.90;;;;;;;18.85;44.08;102983.13;5029954;28;20415;-60
2024/01/31 01:36:10;;;;;;;10.63;9.27;;;;;;;18.85;44.05;102980.47;5025662;28;20041;-60
2024/01/31 01:38:37;;;;;;;10.55;9.45;;;;;;;18.86;44.02;102984.88;5024262;28;20136;-53
2024/01/31 01:41:05;;;;;;;11.73;9.82;;;;;;;18.86;43.86;102975.94;5021252;28;20041;-53
2024/01/31 01:43:32;;;;;;;10.85;9.75;;;;;;;18.85;43.88;102976.91;5011737;28;20090;-52
2024/01/31 01:46:10;;;;;;;10.45;9.32;;;;;;;18.86;43.82;102984.00;5018225;28;20483;-52
2024/01/31 01:48:38;;;;;;;10.95;9.75;;;;;;;18.86;43.93;102978.63;5029541;28;20198;-53
2024/01/31 01:51:06;;;;;;;10.10;9.05;;;;;;;18.86;43.66;102968.78;5027413;28;20049;-53
2024/01/31 01:53:38;;;;;;;12.02;8.90;;;;;;;18.86;43.63;102976.81;5024194;28;20052;-52
2024/01/31 01:56:08;;;;;;;10.90;9.80;;;;;;;18.85;43.58;102963.50;5024576;28;20049;-53
2024/01/31 01:58:36;;;;;;;11.30;9.68;;;;;;;18.85;43.65;102964.34;5029162;28;20042;-51
2024/01/31 02:01:04;;;;;;;10.70;8.77;;;;;;;18.86;43.49;102962.53;5028434;28;20049;-50
2024/01/31 02:03:32;;;;;;;10.55;9.38;;;;;;;18.85;43.40;102961.66;5016589;28;20072;-53
2024/01/31 02:05:59;;;;;;;11.23;9.02;;;;;;;18.86;43.45;102968.78;5030859;28;20514;-49
2024/01/31 02:08:28;;;;;;;10.32;9.23;;;;;;;18.85;43.22;102958.13;5016865;28;20060;-60
2024/01/31 02:10:56;;;;;;;10.25;8.63;;;;;;;18.85;43.28;102960.81;5023030;28;20061;-60
2024/01/31 02:13:23;;;;;;;9.90;8.90;;;;;;;18.85;43.20;102964.34;5032102;28;20403;-60
2024/01/31 02:15:56;;;;;;;10.23;9.13;;;;;;;18.85;43.10;102960.81;5024167;28;20137;-60
2024/01/31 02:18:28;;;;;;;10.03;9.03;;;;;;;18.85;43.30;102964.34;5017937;28;20048;-60
2024/01/31 02:20:55;;;;;;;10.32;9.18;;;;;;;18.84;43.07;102962.63;5024298;28;20276;-53
2024/01/31 02:23:23;;;;;;;11.13;9.10;;;;;;;18.84;43.10;102959.94;5031679;28;20484;-49
2024/01/31 02:25:50;;;;;;;10.65;9.00;;;;;;;18.84;43.08;102959.03;5024651;28;20045;-51
2024/01/31 02:28:17;;;;;;;9.63;8.52;;;;;;;18.84;43.02;102959.03;5026789;28;20086;-60
2024/01/31 02:30:45;;;;;;;9.80;8.80;;;;;;;18.85;43.00;102953.63;5029052;28;20061;-60
2024/01/31 02:33:12;;;;;;;10.30;9.30;;;;;;;18.84;43.04;102962.63;5024475;28;20085;-60
2024/01/31 02:35:39;;;;;;;10.68;8.73;;;;;;;18.84;42.88;102959.03;5029548;28;20388;-60
2024/01/31 02:38:06;;;;;;;10.23;8.60;;;;;;;18.83;42.99;102955.50;5025688;28;20049;-51
2024/01/31 02:40:34;;;;;;;10.30;9.05;;;;;;;18.83;42.87;102944.75;5023974;28;20412;-51
2024/01/31 02:43:01;;;;;;;10.38;8.60;;;;;;;18.83;42.95;102954.63;5026873;28;20045;-51
2024/01/31 02:45:29;;;;;;;9.20;7.95;;;;;;;18.82;43.02;102945.72;5015056;28;20053;-53
2024/01/31 02:47:57;;;;;;;8.93;8.00;;;;;;;18.84;42.88;102951.00;5024865;28;20046;-60
2024/01/31 02:50:26;;;;;;;11.13;9.18;;;;;;;18.83;42.85;102951.94;5023937;28;20050;-60
2024/01/31 02:52:54;;;;;;;9.68;8.38;;;;;;;18.83;42.80;102949.25;5032455;28;20049;-60
2024/01/31 02:55:21;;;;;;;9.50;8.00;;;;;;;18.83;42.85;102946.56;5025971;28;20052;-60
2024/01/31 02:57:48;;;;;;;10.15;8.70;;;;;;;18.81;42.80;102944.00;5024104;28;20476;-54
2024/01/31 03:00:16;;;;;;;8.82;7.82;;;;;;;18.81;42.75;102946.66;5025120;28;20054;-50
2024/01/31 03:02:43;;;;;;;9.65;8.02;;;;;;;18.82;42.61;102943.03;5026904;28;20060;-52
2024/01/31 03:05:11;;;;;;;9.13;7.95;;;;;;;18.81;42.78;102938.63;5025966;28;20056;-52
2024/01/31 03:07:40;;;;;;;9.93;8.60;;;;;;;18.81;42.59;102937.75;5024143;28;20411;-50
2024/01/31 03:10:09;;;;;;;9.05;8.10;;;;;;;18.82;42.63;102934.97;5025436;28;20053;-54
2024/01/31 03:12:37;;;;;;;9.15;8.07;;;;;;;18.81;42.67;102933.25;5031922;28;20056;-51
2024/01/31 03:15:05;;;;;;;10.48;9.07;;;;;;;18.81;42.50;102930.56;5025438;28;20045;-53
2024/01/31 03:17:35;;;;;;;10.32;9.02;;;;;;;18.82;42.54;102926.06;5023797;28;20046;-51
2024/01/31 03:20:05;;;;;;;9.10;8.10;;;;;;;18.82;42.53;102923.38;5025446;28;20102;-53
2024/01/31 03:22:34;;;;;;;8.57;7.68;;;;;;;18.81;42.55;102927.03;5026631;28;20052;-53
2024/01/31 03:25:04;;;;;;;9.00;8.10;;;;;;;18.81;42.45;102917.16;5024169;28;20423;-50
2024/01/31 03:27:32;;;;;;;8.85;7.95;;;;;;;18.80;42.54;102907.38;5022930;28;20038;-60
2024/01/31 03:30:01;;;;;;;7.55;6.60;;;;;;;18.81;42.33;102905.56;5026578;28;20049;-60
2024/01/31 03:32:35;;;;;;;8.65;7.75;;;;;;;18.81;42.40;102909.09;5026961;28;20049;-60
2024/01/31 03:35:03;;;;;;;9.95;8.95;;;;;;;18.80;42.35;102907.38;5023328;28;20050;-60
2024/01/31 03:37:31;;;;;;;7.82;7.03;;;;;;;18.80;42.38;102903.78;5023607;28;20446;-60
2024/01/31 03:39:58;;;;;;;10.32;8.30;;;;;;;18.81;42.24;102918.97;5027350;28;20400;-60
2024/01/31 03:42:26;;;;;;;9.80;7.72;;;;;;;18.80;42.35;102919.88;5026712;28;20068;-60
2024/01/31 03:44:53;;;;;;;8.35;7.40;;;;;;;18.79;42.21;102921.72;5020532;28;20049;-60
2024/01/31 03:47:21;;;;;;;9.07;8.05;;;;;;;18.78;42.29;102918.16;5015080;28;20053;-53
2024/01/31 03:49:51;;;;;;;8.48;7.57;;;;;;;18.80;42.32;102914.53;5014301;28;20057;-49
2024/01/31 03:52:18;;;;;;;8.75;7.85;;;;;;;18.79;42.41;102916.34;5030947;28;20068;-52
2024/01/31 03:54:46;;;;;;;8.63;7.50;;;;;;;18.79;42.26;102908.28;5027280;28;20048;-53
2024/01/31 03:57:13;;;;;;;8.85;7.95;;;;;;;18.77;42.22;102916.44;5026041;28;20038;-58
2024/01/31 03:59:41;;;;;;;8.50;7.60;;;;;;;18.78;42.42;102914.63;5034037;28;20045;-60
2024/01/31 04:02:08;;;;;;;7.93;7.13;;;;;;;18.78;42.52;102907.44;5026073;28;20064;-60
2024/01/31 04:04:35;;;;;;;8.15;6.93;;;;;;;18.78;42.29;102907.44;5029323;28;20046;-60
2024/01/31 04:07:03;;;;;;;8.90;7.55;;;;;;;18.77;42.22;102913.75;5030405;28;20048;-60
2024/01/31 04:09:31;;;;;;;9.25;7.80;;;;;;;18.76;42.28;102912.03;5026320;28;20066;-51
2024/01/31 04:11:59;;;;;;;7.88;7.07;;;;;;;18.76;42.13;102903.97;5033313;28;20046;-52
2024/01/31 04:14:26;;;;;;;8.02;7.10;;;;;;;18.77;42.11;102905.69;5026625;28;20041;-52
2024/01/31 04:16:54;;;;;;;8.10;7.20;;;;;;;18.76;42.20;102903.97;5026110;28;20042;-54
2024/01/31 04:19:21;;;;;;;8.60;7.18;;;;;;;18.75;42.07;102904.03;5034197;28;20491;-51
2024/01/31 04:21:48;;;;;;;8.50;7.65;;;;;;;18.76;42.02;102897.75;5025385;28;20526;-51
2024/01/31 04:24:16;;;;;;;8.80;7.35;;;;;;;18.76;41.87;102897.75;5029643;28;20053;-49
2024/01/31 04:26:44;;;;;;;8.82;7.28;;;;;;;18.76;42.00;102901.28;5030235;28;20046;-52
2024/01/31 04:29:11;;;;;;;7.95;7.10;;;;;;;18.75;42.07;102891.47;5025644;28;20053;-52
2024/01/31 04:31:38;;;;;;;7.53;6.72;;;;;;;18.76;42.07;102892.38;5031514;28;20057;-52
2024/01/31 04:34:06;;;;;;;7.55;6.38;;;;;;;18.74;42.07;102892.44;5023545;28;20042;-51
2024/01/31 04:36:33;;;;;;;7.07;6.10;;;;;;;18.75;41.99;102896.84;5029947;28;20052;-51
2024/01/31 04:39:01;;;;;;;8.57;6.85;;;;;;;18.75;42.08;102902.22;5025430;28;20422;-60
2024/01/31 04:41:28;;;;;;;10.23;7.10;;;;;;;18.75;41.99;102899.53;5032684;28;20045;-60
2024/01/31 04:43:56;;;;;;;7.78;7.00;;;;;;;18.76;41.80;102905.78;5015680;28;20046;-60
2024/01/31 04:46:23;;;;;;;7.10;6.40;;;;;;;18.75;42.01;102901.34;5013439;28;20388;-60
2024/01/31 04:48:50;;;;;;;8.25;6.53;;;;;;;18.75;41.85;102910.25;5017946;28;20480;-60
2024/01/31 04:51:18;;;;;;;8.93;7.47;;;;;;;18.75;41.82;102910.25;5023938;28;20072;-60
2024/01/31 04:53:45;;;;;;;7.18;6.47;;;;;;;18.75;41.88;102918.31;5023781;28;20045;-49
2024/01/31 04:56:12;;;;;;;7.47;6.18;;;;;;;18.75;41.68;102918.31;5026509;28;20049;-52
2024/01/31 04:58:40;;;;;;;7.10;6.22;;;;;;;18.75;41.83;102909.41;5017746;28;20399;-52
2024/01/31 05:01:07;;;;;;;8.57;6.85;;;;;;;18.75;41.76;102914.75;5023817;28;20124;-52
2024/01/31 05:03:35;;;;;;;7.43;6.13;;;;;;;18.74;41.65;102908.53;5020517;28;20050;-50
2024/01/31 05:06:03;;;;;;;6.70;6.00;;;;;;;18.75;41.74;102910.25;5021118;28;20050;-53
2024/01/31 05:08:30;;;;;;;8.30;6.60;;;;;;;18.74;41.67;102903.16;5026105;28;20045;-60
2024/01/31 05:10:58;;;;;;;6.72;5.78;;;;;;;18.74;41.77;102903.16;5024202;28;20053;-60
2024/01/31 05:13:25;;;;;;;7.22;6.03;;;;;;;18.74;41.71;102915.72;5020868;28;20068;-60
2024/01/31 05:15:53;;;;;;;7.15;6.15;;;;;;;18.73;41.70;102914.84;5020773;28;20056;-60
2024/01/31 05:18:20;;;;;;;8.80;6.80;;;;;;;18.73;41.74;102924.72;5025979;28;20060;-60
2024/01/31 05:20:48;;;;;;;7.50;6.53;;;;;;;18.73;41.73;102914.00;5024252;28;20041;-60
2024/01/31 05:23:15;;;;;;;7.53;6.05;;;;;;;18.74;41.89;102923.75;5026074;28;20049;-60
2024/01/31 05:25:45;;;;;;;6.78;6.10;;;;;;;18.73;41.82;102922.91;5024503;28;20049;-60
2024/01/31 05:28:12;;;;;;;8.68;6.43;;;;;;;18.72;41.79;102933.72;5017552;28;20045;-52
2024/01/31 05:30:39;;;;;;;6.15;5.53;;;;;;;18.72;41.72;102923.00;5023145;28;20057;-50
2024/01/31 05:33:07;;;;;;;7.45;6.57;;;;;;;18.72;41.67;102918.50;5020626;28;20416;-52
2024/01/31 05:35:36;;;;;;;9.02;7.05;;;;;;;18.73;41.62;102909.47;5020102;28;20046;-53
2024/01/31 05:38:04;;;;;;;6.15;5.55;;;;;;;18.72;41.63;102913.13;5023793;28;20053;-52
2024/01/31 05:40:31;;;;;;;10.32;6.30;;;;;;;18.73;41.42;102922.91;5022915;28;20049;-60
2024/01/31 05:42:59;;;;;;;6.95;6.07;;;;;;;18.73;41.47;102920.22;5020508;28;20042;-60
2024/01/31 05:45:27;;;;;;;7.03;6.32;;;;;;;18.74;41.41;102915.72;5021527;28;20049;-60
2024/01/31 05:47:54;;;;;;;10.45;5.63;;;;;;;18.73;41.42;102917.53;5011806;28;20042;-60
2024/01/31 05:50:21;;;;;;;6.57;5.50;;;;;;;18.75;41.19;102925.50;5021415;28;20048;-58
2024/01/31 05:52:49;;;;;;;6.75;5.60;;;;;;;18.75;41.63;102918.31;5027409;28;20053;-59
2024/01/31 05:55:16;;;;;;;7.18;5.65;;;;;;;18.75;41.50;102921.00;5028802;28;20400;-59
2024/01/31 05:57:48;;;;;;;6.97;5.53;;;;;;;18.74;41.43;102927.31;5023500;28;20069;-59
2024/01/31 06:00:16;;;;;;;6.78;5.60;;;;;;;18.71;41.75;102922.09;5030245;28;20108;-59
2024/01/31 06:02:44;;;;;;;7.10;6.40;;;;;;;18.72;41.69;102915.81;5025514;28;20052;-59
2024/01/31 06:05:13;;;;;;;6.70;6.00;;;;;;;18.72;41.72;102925.66;5023544;28;20500;-59
2024/01/31 06:07:40;;;;;;;7.40;5.47;;;;;;;18.70;41.75;102925.72;5031644;28;20052;-54
2024/01/31 06:10:09;;;;;;;6.72;5.65;;;;;;;18.70;41.69;102925.72;5022869;28;20064;-49
2024/01/31 06:12:37;;;;;;;5.65;5.00;;;;;;;18.70;41.79;102935.59;5026326;28;20053;-51
2024/01/31 06:15:05;;;;;;;5.88;5.28;;;;;;;18.69;41.80;102929.34;5029357;28;20046;-51
2024/01/31 06:17:32;;;;;;;6.97;5.53;;;;;;;18.70;41.79;102932.91;5023343;28;20052;-59
2024/01/31 06:19:59;;;;;;;7.85;6.25;;;;;;;18.70;41.87;102927.53;5029922;28;20052;-59
2024/01/31 06:22:27;;;;;;;7.72;5.20;;;;;;;18.68;41.84;102922.25;5025491;28;20052;-59
2024/01/31 06:24:54;;;;;;;7.28;5.65;;;;;;;18.69;41.71;102929.34;5022921;28;20042;-59
2024/01/31 06:27:22;;;;;;;6.25;5.28;;;;;;;18.68;41.67;102924.06;5032206;28;20049;-51
2024/01/31 06:29:49;;;;;;;7.95;5.70;;;;;;;18.68;41.63;102927.59;5026221;28;20072;-49
2024/01/31 06:32:21;;;;;;;9.40;5.60;;;;;;;18.69;41.70;102933.84;5029881;28;20066;-54
2024/01/31 06:34:49;;;;;;;5.95;4.85;;;;;;;18.69;41.74;102933.84;5033499;28;20060;-50
2024/01/31 06:37:16;;;;;;;6.05;4.78;;;;;;;18.69;41.80;102934.69;5027223;28;20041;-48
2024/01/31 06:39:44;;;;;;;6.32;4.90;;;;;;;18.70;41.76;102941.81;5032580;28;20053;-54
2024/01/31 06:42:11;;;;;;;5.68;4.88;;;;;;;18.69;41.83;102942.75;5030043;28;20045;-51
2024/01/31 06:44:38;;;;;;;7.97;5.05;;;;;;;18.69;41.85;102945.44;5021191;28;20408;-51
2024/01/31 06:47:07;;;;;;;6.70;5.32;;;;;;;18.68;41.54;102943.69;5029207;28;20045;-58
2024/01/31 06:49:35;;;;;;;7.55;5.07;;;;;;;18.69;41.83;102952.63;5016119;28;20041;-59
2024/01/31 06:52:03;;;;;;;8.32;5.20;;;;;;;18.69;41.71;102957.97;5023263;28;20041;-59
2024/01/31 06:54:30;;;;;;;6.85;5.40;;;;;;;18.67;41.50;102963.41;5024195;28;20046;-59
2024/01/31 06:56:58;;;;;;;7.50;5.55;;;;;;;18.67;41.55;102955.34;5026691;28;20094;-59
2024/01/31 06:59:25;;;;;;;5.60;4.85;;;;;;;18.67;41.54;102954.50;5023309;28;20064;-52
2024/01/31 07:01:52;;;;;;;5.90;5.30;;;;;;;18.66;41.59;102950.94;5022737;28;20404;-52
2024/01/31 07:04:20;;;;;;;6.50;5.40;;;;;;;18.67;41.58;102957.16;5024044;28;20075;-59
2024/01/31 07:06:47;;;;;;;6.00;5.10;;;;;;;18.67;41.39;102973.28;5025959;28;20400;-59
2024/01/31 07:09:15;;;;;;;6.43;5.28;;;;;;;18.66;41.52;102969.72;5023005;28;20081;-59
2024/01/31 07:11:42;;;;;;;6.20;5.25;;;;;;;18.65;41.48;102970.69;5022737;28;20393;-59
2024/01/31 07:14:09;;;;;;;6.88;5.65;;;;;;;18.66;41.38;102963.50;5023888;28;20050;-59
2024/01/31 07:16:37;;;;;;;6.72;5.65;;;;;;;18.66;41.41;102971.53;5026068;28;20045;-59
2024/01/31 07:19:04;;;;;;;6.18;4.82;;;;;;;18.66;41.46;102969.72;5023653;28;20500;-53
2024/01/31 07:21:32;;;;;;;7.07;5.68;;;;;;;18.65;41.26;102962.63;5022297;28;20050;-53
2024/01/31 07:23:59;;;;;;;6.65;4.60;;;;;;;18.65;41.38;102965.31;5023464;28;20056;-52
2024/01/31 07:26:37;;;;;;;7.93;5.10;;;;;;;18.65;41.20;102967.13;5025778;28;20052;-52
2024/01/31 07:29:08;;;;;;;5.82;4.95;;;;;;;18.65;41.36;102964.44;5022238;28;20042;-59
2024/01/31 07:31:35;;;;;;;6.15;5.20;;;;;;;18.64;41.34;102968.06;5030396;28;20058;-54
2024/01/31 07:34:03;;;;;;;5.95;5.07;;;;;;;18.65;41.17;102965.31;5025702;28;20049;-54
2024/01/31 07:36:30;;;;;;;7.65;5.30;;;;;;;18.65;41.32;102975.19;5025413;28;20061;-53
2024/01/31 07:38:58;;;;;;;6.68;5.10;;;;;;;18.65;41.29;102988.59;5021572;28;20069;-49
2024/01/31 07:41:25;;;;;;;5.95;5.35;;;;;;;18.66;41.32;102990.31;5021392;28;20369;-52
2024/01/31 07:43:52;;;;;;;6.95;5.40;;;;;;;18.65;41.03;102985.91;5022148;28;20042;-50
2024/01/31 07:46:20;;;;;;;6.30;5.20;;;;;;;18.64;41.19;102986.84;5031044;28;20049;-53
2024/01/31 07:48:47;;;;;;;7.57;5.45;;;;;;;18.64;41.23;102987.72;5014500;28;20037;-59
2024/01/31 07:51:15;;;;;;;7.30;5.50;;;;;;;18.64;41.26;102981.50;5015460;28;20046;-59
2024/01/31 07:53:43;;;;;;;5.95;5.15;;;;;;;18.65;41.18;102985.91;5024214;28;20041;-59
2024/01/31 07:56:11;;;;;;;7.28;5.07;;;;;;;18.63;41.13;102983.28;5024178;28;20072;-59
2024/01/31 07:58:38;;;;;;;6.78;5.43;;;;;;;18.64;41.12;102973.44;5020918;28;20045;-52
2024/01/31 08:01:06;;;;;;;6.13;5.53;;;;;;;18.63;41.22;102980.59;5025549;28;20164;-52
2024/01/31 08:03:38;;;;;;;6.40;5.20;;;;;;;18.63;40.96;102975.22;5024383;28;20041;-53
2024/01/31 08:06:06;;;;;;;5.75;5.15;;;;;;;18.63;41.15;102985.97;5023778;28;20053;-59
2024/01/31 08:08:36;;;;;;;6.18;5.50;;;;;;;18.63;41.11;102994.00;5014847;28;20042;-59
2024/01/31 08:11:03;;;;;;;6.60;5.60;;;;;;;18.63;41.03;102985.97;5021087;28;20393;-59
2024/01/31 08:13:32;;;;;;;6.22;5.40;;;;;;;18.63;41.02;102994.00;5024886;28;20521;-59
2024/01/31 08:15:59;;;;;;;7.13;5.72;;;;;;;18.64;41.03;102989.53;5022922;28;20052;-59
2024/01/31 08:18:27;;;;;;;5.90;4.95;;;;;;;18.63;41.09;102990.47;5021254;28;20061;-50
2024/01/31 08:20:54;;;;;;;8.20;5.50;;;;;;;18.63;40.86;102993.13;5030204;28;20052;-49
2024/01/31 08:23:22;;;;;;;6.90;5.00;;;;;;;18.63;40.91;102988.66;5024309;28;20049;-50
2024/01/31 08:25:49;;;;;;;6.85;5.82;;;;;;;18.64;40.88;102987.72;5022534;28;20068;-52
2024/01/31 08:28:17;;;;;;;6.20;5.47;;;;;;;18.65;40.80;102986.78;5021020;28;20407;-49
2024/01/31 08:30:44;;;;;;;5.85;4.97;;;;;;;18.66;41.03;102993.88;5020527;28;20416;-51
2024/01/31 08:33:12;;;;;;;8.48;5.93;;;;;;;18.67;40.73;102987.56;5024290;28;20052;-49
2024/01/31 08:35:39;;;;;;;6.30;5.63;;;;;;;18.68;40.92;102989.31;5022684;28;20041;-49
2024/01/31 08:38:07;;;;;;;8.10;5.93;;;;;;;18.70;40.83;102986.56;5020492;28;20049;-59
2024/01/31 08:40:34;;;;;;;7.15;5.70;;;;;;;18.73;40.68;102983.75;5020551;28;20042;-59
2024/01/31 08:43:01;;;;;;;5.70;4.80;;;;;;;18.75;40.61;102977.34;5024255;28;20037;-59
2024/01/31 08:45:29;;;;;;;6.07;5.43;;;;;;;18.77;40.49;102977.28;5017576;28;20045;-59
2024/01/31 08:47:57;;;;;;;6.80;6.10;;;;;;;18.78;40.58;102979.88;5028191;28;20404;-59
2024/01/31 08:50:24;;;;;;;6.47;5.38;;;;;;;18.80;40.40;102982.50;5013109;28;20046;-59
2024/01/31 08:52:53;;;;;;;7.47;5.50;;;;;;;18.80;40.23;102986.97;5017969;28;20052;-59
2024/01/31 08:55:21;;;;;;;6.85;6.03;;;;;;;18.81;40.12;102986.06;5021200;28;20407;-59
2024/01/31 08:57:48;;;;;;;6.75;5.47;;;;;;;18.81;40.25;102981.56;5019996;28;20069;-50
2024/01/31 09:00:16;;;;;;;6.28;5.63;;;;;;;18.83;40.15;102984.16;5019696;28;20516;-52
2024/01/31 09:02:43;;;;;;;6.13;5.40;;;;;;;18.85;39.93;102982.28;5023280;28;20068;-51
2024/01/31 09:05:11;;;;;;;6.05;5.10;;;;;;;18.85;39.88;102977.78;5021551;28;20046;-52
2024/01/31 09:07:38;;;;;;;6.15;5.25;;;;;;;18.86;39.89;102978.63;5019798;28;20046;-50
2024/01/31 09:10:06;;;;;;;5.97;5.03;;;;;;;18.86;39.92;102981.31;5027414;28;20049;-54
2024/01/31 09:12:34;;;;;;;5.85;5.25;;;;;;;18.87;39.82;102975.88;5023498;28;20049;-59
2024/01/31 09:15:01;;;;;;;6.57;5.32;;;;;;;18.88;39.81;102987.47;5020882;28;20407;-59
2024/01/31 09:17:29;;;;;;;6.28;5.10;;;;;;;18.88;39.80;102980.31;5019674;28;20053;-59
2024/01/31 09:19:56;;;;;;;7.25;5.60;;;;;;;18.89;39.66;102984.72;5019778;28;20523;-59
2024/01/31 09:22:24;;;;;;;7.18;5.82;;;;;;;18.90;39.53;102983.78;5023219;28;20049;-59
2024/01/31 09:24:52;;;;;;;8.93;5.60;;;;;;;18.92;39.70;102981.00;5026824;28;20053;-59
2024/01/31 09:27:19;;;;;;;5.70;5.10;;;;;;;18.93;39.83;102985.44;5026603;28;20057;-58
2024/01/31 09:29:47;;;;;;;7.53;5.85;;;;;;;18.94;40.01;102980.00;5027466;28;20041;-59
2024/01/31 09:32:15;;;;;;;8.38;5.95;;;;;;;18.96;40.11;102982.63;5027639;28;20057;-58
2024/01/31 09:34:43;;;;;;;12.88;9.30;;;;;;;18.88;38.84;102982.09;5020778;28;20049;-54
2024/01/31 09:37:10;;;;;;;12.65;9.98;;;;;;;18.76;37.29;102972.88;5018968;28;20064;-52
2024/01/31 09:39:38;;;;;;;11.60;10.32;;;;;;;18.62;36.19;102976.19;5020082;28;20057;-51
2024/01/31 09:42:06;;;;;;;12.38;9.90;;;;;;;18.50;36.32;102974.97;5023332;28;20117;-53
2024/01/31 09:44:35;;;;;;;12.10;9.05;;;;;;;18.44;36.25;102977.09;5027600;28;20060;-53
2024/01/31 09:47:03;;;;;;;13.07;9.02;;;;;;;18.40;36.25;102983.53;5019191;28;20049;-60
2024/01/31 09:49:31;;;;;;;10.20;8.40;;;;;;;18.43;36.35;102978.91;5019307;28;20049;-54
2024/01/31 09:52:02;;;;;;;10.05;7.35;;;;;;;18.48;37.21;102967.94;5012337;28;20045;-54
2024/01/31 09:54:30;;;;;;;9.30;7.75;;;;;;;18.50;37.56;102972.28;5021719;28;20057;-54
2024/01/31 09:57:00;;;;;;;11.35;8.25;;;;;;;18.52;37.02;102970.41;5025503;28;20050;-52
2024/01/31 09:59:28;;;;;;;11.45;8.23;;;;;;;18.54;36.81;102975.69;5020373;28;20054;-59
2024/01/31 10:01:57;;;;;;;9.70;7.30;;;;;;;18.60;37.21;102971.84;5030818;28;20415;-60
2024/01/31 10:04:24;;;;;;;10.30;8.05;;;;;;;18.62;37.70;102965.44;5017287;28;20056;-59
2024/01/31 10:06:52;;;;;;;9.85;8.30;;;;;;;18.63;37.71;102972.53;5024568;28;20046;-60
2024/01/31 10:09:20;;;;;;;10.90;7.45;;;;;;;18.68;37.81;102970.53;5030007;28;20050;-59
2024/01/31 10:11:48;;;;;;;11.90;8.10;;;;;;;18.70;38.01;102968.66;5021945;28;20049;-59
2024/01/31 10:14:15;;;;;;;11.27;8.57;;;;;;;18.71;37.25;102970.38;5017512;28;20053;-58
2024/01/31 10:16:43;;;;;;;10.32;8.35;;;;;;;18.73;37.65;102976.56;5024349;28;20046;-58
2024/01/31 10:19:11;;;;;;;10.82;8.07;;;;;;;18.74;37.84;102970.25;5029979;28;20353;-58
2024/01/31 10:21:39;;;;;;;8.82;6.88;;;;;;;18.75;38.33;102963.94;5021908;28;20131;-58
2024/01/31 10:24:07;;;;;;;10.07;7.80;;;;;;;18.78;38.37;102961.09;5027991;28;20050;-58
2024/01/31 10:26:35;;;;;;;10.52;7.32;;;;;;;18.80;38.21;102961.03;5027823;28;20061;-58
2024/01/31 10:29:04;;;;;;;8.27;6.35;;;;;;;18.81;38.11;102949.34;5021527;28;20053;-55
2024/01/31 10:31:38;;;;;;;10.32;6.70;;;;;;;18.82;38.32;102947.53;5030048;28;20053;-55
2024/01/31 10:34:08;;;;;;;6.85;5.97;;;;;;;18.84;38.30;102948.31;5020443;28;20404;-54
2024/01/31 10:36:40;;;;;;;10.23;7.15;;;;;;;18.84;38.39;102943.84;5028194;28;20049;-52
2024/01/31 10:39:10;;;;;;;8.15;6.38;;;;;;;18.85;38.46;102936.66;5017160;28;20045;-58
2024/01/31 10:41:42;;;;;;;8.52;6.88;;;;;;;18.86;38.49;102933.88;5028402;28;20046;-58
2024/01/31 10:44:14;;;;;;;8.85;6.55;;;;;;;18.87;38.46;102940.97;5012837;28;20049;-58
2024/01/31 10:46:45;;;;;;;7.80;6.35;;;;;;;18.88;38.61;102932.00;5029857;28;20405;-59
2024/01/31 10:49:15;;;;;;;7.85;5.97;;;;;;;18.89;38.74;102925.69;5021399;28;20052;-58
2024/01/31 10:51:47;;;;;;;7.13;5.18;;;;;;;18.89;38.61;102927.50;5020238;28;20085;-58
2024/01/31 10:54:16;;;;;;;7.78;5.32;;;;;;;18.89;38.75;102936.41;5011006;28;20050;-58
2024/01/31 10:56:45;;;;;;;7.32;6.07;;;;;;;18.90;38.51;102915.81;5025719;28;20046;-59
2024/01/31 10:59:13;;;;;;;7.45;6.13;;;;;;;18.89;38.65;102912.25;5019309;28;20042;-53
2024/01/31 11:01:55;;;;;;;7.55;6.70;;;;;;;18.92;38.38;102911.22;5017776;28;20069;-53
2024/01/31 11:04:22;;;;;;;7.28;5.80;;;;;;;18.91;38.34;102904.13;5018624;28;20492;-55
2024/01/31 11:06:50;;;;;;;7.25;5.55;;;;;;;18.90;38.49;102905.94;5021300;28;20044;-55
2024/01/31 11:09:22;;;;;;;8.52;6.55;;;;;;;18.90;38.45;102895.19;5028415;28;20051;-58
2024/01/31 11:12:12;;;;;;;7.53;5.80;;;;;;;18.91;38.48;102885.31;5017565;28;20068;-59
2024/01/31 11:14:41;;;;;;;7.22;5.35;;;;;;;18.91;38.62;102891.56;5019014;28;20514;-58
2024/01/31 11:17:12;;;;;;;7.40;5.72;;;;;;;18.91;38.67;102888.00;5031428;28;20049;-54
2024/01/31 11:19:40;;;;;;;6.45;5.05;;;;;;;18.92;38.91;102882.59;5021229;28;20523;-51
2024/01/31 11:22:08;;;;;;;7.20;5.68;;;;;;;18.93;38.90;102887.00;5023135;28;20052;-52
2024/01/31 11:24:42;;;;;;;8.63;5.75;;;;;;;18.92;38.88;102877.22;5027810;28;20413;-52